createdAt,value
2022-08-16T00:00:20.409Z,982.46
2022-08-16T00:01:16.962Z,982.40
2022-08-16T00:02:15.956Z,982.44
2022-08-16T00:03:15.902Z,982.45
2022-08-16T00:04:15.883Z,982.42
2022-08-16T00:05:15.871Z,982.44
2022-08-16T00:06:15.893Z,982.47
2022-08-16T00:07:15.843Z,982.41
2022-08-16T00:08:36.302Z,982.46
2022-08-16T00:09:16.816Z,982.42
2022-08-16T00:10:20.692Z,982.37
2022-08-16T00:11:16.943Z,982.45
2022-08-16T00:12:18.042Z,982.41
2022-08-16T00:13:15.764Z,982.39
2022-08-16T00:14:15.753Z,982.40
2022-08-16T00:15:17.007Z,982.40
2022-08-16T00:17:05.646Z,982.38
2022-08-16T00:17:19.453Z,982.38
2022-08-16T00:18:15.714Z,982.39
2022-08-16T00:19:15.683Z,982.40
2022-08-16T00:20:15.676Z,982.37
2022-08-16T00:21:15.653Z,982.36
2022-08-16T00:22:15.683Z,982.36
2022-08-16T00:23:15.805Z,982.39
2022-08-16T00:24:32.427Z,982.38
2022-08-16T00:25:16.603Z,982.38
2022-08-16T00:26:36.430Z,982.39
2022-08-16T00:27:17.407Z,982.39
2022-08-16T00:28:15.571Z,982.39
2022-08-16T00:29:16.058Z,982.43
2022-08-16T00:30:19.694Z,982.36
2022-08-16T00:31:16.525Z,982.39
2022-08-16T00:32:18.110Z,982.38
2022-08-16T00:33:15.494Z,982.38
2022-08-16T00:34:18.473Z,982.34
2022-08-16T00:35:16.001Z,982.40
2022-08-16T00:36:15.465Z,982.34
2022-08-16T00:37:16.983Z,982.32
2022-08-16T00:38:40.162Z,982.31
2022-08-16T00:39:16.418Z,982.29
2022-08-16T00:40:33.488Z,982.29
2022-08-16T00:41:17.123Z,982.26
2022-08-16T00:42:29.525Z,982.32
2022-08-16T00:43:19.401Z,982.31
2022-08-16T00:44:15.368Z,982.30
2022-08-16T00:45:15.370Z,982.35
2022-08-16T00:46:22.327Z,982.33
2022-08-16T00:47:16.350Z,982.35
2022-08-16T00:48:31.249Z,982.35
2022-08-16T00:49:17.767Z,982.35
2022-08-16T00:50:15.317Z,982.36
2022-08-16T00:51:16.186Z,982.37
2022-08-16T00:52:29.373Z,982.38
2022-08-16T00:53:16.237Z,982.37
2022-08-16T00:54:15.236Z,982.39
2022-08-16T00:55:16.206Z,982.40
2022-08-16T00:56:57.049Z,982.40
2022-08-16T00:57:16.218Z,982.36
2022-08-16T00:58:16.460Z,982.36
2022-08-16T00:59:16.185Z,982.37
2022-08-16T01:00:20.033Z,982.37
2022-08-16T01:01:16.144Z,982.38
2022-08-16T01:02:30.471Z,982.38
2022-08-16T01:03:16.135Z,982.41
2022-08-16T01:04:29.497Z,982.36
2022-08-16T01:05:16.087Z,982.40
2022-08-16T01:06:40.809Z,982.41
2022-08-16T01:07:17.575Z,982.42
2022-08-16T01:08:36.432Z,982.40
2022-08-16T01:09:16.027Z,982.46
2022-08-16T01:10:16.100Z,982.41
2022-08-16T01:11:14.997Z,982.45
2022-08-16T01:12:26.215Z,982.46
2022-08-16T01:13:15.973Z,982.46
2022-08-16T01:14:20.087Z,982.46
2022-08-16T01:15:15.944Z,982.46
2022-08-16T01:16:19.832Z,982.49
2022-08-16T01:17:15.946Z,982.47
2022-08-16T01:18:40.558Z,982.44
2022-08-16T01:19:15.918Z,982.46
2022-08-16T01:20:23.836Z,982.45
2022-08-16T01:21:15.868Z,982.44
2022-08-16T01:22:47.062Z,982.46
2022-08-16T01:23:17.060Z,982.44
2022-08-16T01:24:53.494Z,982.45
2022-08-16T01:25:15.821Z,982.42
2022-08-16T01:26:33.689Z,982.43
2022-08-16T01:27:15.820Z,982.48
2022-08-16T01:28:19.986Z,982.44
2022-08-16T01:29:15.789Z,982.45
2022-08-16T01:30:20.342Z,982.50
2022-08-16T01:31:15.753Z,982.43
2022-08-16T01:32:14.752Z,982.41
2022-08-16T01:33:15.931Z,982.41
2022-08-16T01:34:24.910Z,982.45
2022-08-16T01:35:17.117Z,982.44
2022-08-16T01:36:14.673Z,982.48
2022-08-16T01:37:14.689Z,982.44
2022-08-16T01:38:19.644Z,982.43
2022-08-16T01:39:15.630Z,982.47
2022-08-16T01:40:15.505Z,982.44
2022-08-16T01:41:19.923Z,982.45
2022-08-16T01:42:15.630Z,982.44
2022-08-16T01:43:14.579Z,982.45
2022-08-16T01:44:14.561Z,982.49
2022-08-16T01:45:14.561Z,982.45
2022-08-16T01:46:29.748Z,982.45
2022-08-16T01:47:15.549Z,982.42
2022-08-16T01:48:20.168Z,982.43
2022-08-16T01:49:15.510Z,982.43
2022-08-16T01:50:41.904Z,982.43
2022-08-16T01:51:16.758Z,982.42
2022-08-16T01:52:29.722Z,982.44
2022-08-16T01:53:15.453Z,982.42
2022-08-16T01:54:15.384Z,982.42
2022-08-16T01:55:14.579Z,982.42
2022-08-16T01:56:24.322Z,982.41
2022-08-16T01:57:15.421Z,982.44
2022-08-16T01:58:15.381Z,982.40
2022-08-16T01:59:15.756Z,982.40
2022-08-16T02:00:19.462Z,982.43
2022-08-16T02:01:15.487Z,982.41
2022-08-16T02:02:27.208Z,982.42
2022-08-16T02:03:15.402Z,982.43
2022-08-16T02:04:14.301Z,982.43
2022-08-16T02:05:15.291Z,982.49
2022-08-16T02:06:14.281Z,982.48
2022-08-16T02:07:16.119Z,982.48
2022-08-16T02:08:32.837Z,982.46
2022-08-16T02:09:15.351Z,982.47
2022-08-16T02:10:14.223Z,982.49
2022-08-16T02:11:14.213Z,982.48
2022-08-16T02:12:49.513Z,982.45
2022-08-16T02:13:15.211Z,982.47
2022-08-16T02:14:18.225Z,982.46
2022-08-16T02:15:15.178Z,982.45
2022-08-16T02:16:18.690Z,982.49
2022-08-16T02:17:14.152Z,982.51
2022-08-16T02:18:14.152Z,982.52
2022-08-16T02:19:16.209Z,982.52
2022-08-16T02:20:14.083Z,982.55
2022-08-16T02:21:14.083Z,982.57
2022-08-16T02:22:34.457Z,982.51
2022-08-16T02:23:17.115Z,982.56
2022-08-16T02:24:32.076Z,982.50
2022-08-16T02:25:15.079Z,982.52
2022-08-16T02:26:16.984Z,982.52
2022-08-16T02:27:14.993Z,982.52
2022-08-16T02:28:17.207Z,982.54
2022-08-16T02:29:13.982Z,982.58
2022-08-16T02:30:36.666Z,982.54
2022-08-16T02:31:14.944Z,982.54
2022-08-16T02:32:49.714Z,982.57
2022-08-16T02:33:15.349Z,982.56
2022-08-16T02:34:13.904Z,982.57
2022-08-16T02:35:13.893Z,982.57
2022-08-16T02:36:14.340Z,982.53
2022-08-16T02:37:14.865Z,982.59
2022-08-16T02:38:15.055Z,982.57
2022-08-16T02:39:14.747Z,982.54
2022-08-16T02:40:16.301Z,982.57
2022-08-16T02:41:13.816Z,982.60
2022-08-16T02:42:13.800Z,982.56
2022-08-16T02:43:14.811Z,982.56
2022-08-16T02:44:14.043Z,982.61
2022-08-16T02:45:13.975Z,982.56
2022-08-16T02:46:13.744Z,982.60
2022-08-16T02:47:13.734Z,982.62
2022-08-16T02:48:30.068Z,982.57
2022-08-16T02:49:14.705Z,982.62
2022-08-16T02:50:55.529Z,982.64
2022-08-16T02:51:14.674Z,982.63
2022-08-16T02:52:24.359Z,982.64
2022-08-16T02:53:14.683Z,982.62
2022-08-16T02:54:13.639Z,982.61
2022-08-16T02:55:15.594Z,982.64
2022-08-16T02:56:14.554Z,982.63
2022-08-16T02:57:13.606Z,982.63
2022-08-16T02:58:13.723Z,982.64
2022-08-16T02:59:14.519Z,982.66
2022-08-16T03:00:34.719Z,982.65
2022-08-16T03:01:25.021Z,982.64
2022-08-16T03:02:15.147Z,982.65
2022-08-16T03:03:13.545Z,982.61
2022-08-16T03:04:39.255Z,982.65
2022-08-16T03:05:14.496Z,982.65
2022-08-16T03:06:42.210Z,982.63
2022-08-16T03:07:14.466Z,982.58
2022-08-16T03:08:52.469Z,982.62
2022-08-16T03:09:16.334Z,982.60
2022-08-16T03:10:13.420Z,982.60
2022-08-16T03:11:16.659Z,982.59
2022-08-16T03:12:16.460Z,982.58
2022-08-16T03:13:13.485Z,982.58
2022-08-16T03:14:13.515Z,982.60
2022-08-16T03:15:14.360Z,982.58
2022-08-16T03:16:32.848Z,982.61
2022-08-16T03:17:14.357Z,982.59
2022-08-16T03:18:34.309Z,982.64
2022-08-16T03:19:14.335Z,982.61
2022-08-16T03:20:13.328Z,982.58
2022-08-16T03:21:13.476Z,982.57
2022-08-16T03:22:13.262Z,982.59
2022-08-16T03:23:14.686Z,982.55
2022-08-16T03:24:28.658Z,982.56
2022-08-16T03:25:14.497Z,982.58
2022-08-16T03:26:13.206Z,982.55
2022-08-16T03:27:13.198Z,982.51
2022-08-16T03:28:13.459Z,982.53
2022-08-16T03:29:13.329Z,982.54
2022-08-16T03:30:16.129Z,982.55
2022-08-16T03:31:13.145Z,982.59
2022-08-16T03:32:13.685Z,982.57
2022-08-16T03:33:13.176Z,982.59
2022-08-16T03:34:13.203Z,982.59
2022-08-16T03:35:13.038Z,982.60
2022-08-16T03:36:30.001Z,982.66
2022-08-16T03:37:14.116Z,982.63
2022-08-16T03:38:33.157Z,982.64
2022-08-16T03:39:15.210Z,982.61
2022-08-16T03:40:23.324Z,982.59
2022-08-16T03:41:25.125Z,982.56
2022-08-16T03:42:20.515Z,982.59
2022-08-16T03:43:19.763Z,982.60
2022-08-16T03:44:13.937Z,982.61
2022-08-16T03:45:14.054Z,982.61
2022-08-16T03:46:12.949Z,982.59
2022-08-16T03:47:18.924Z,982.63
2022-08-16T03:48:15.073Z,982.59
2022-08-16T03:49:13.262Z,982.58
2022-08-16T03:50:25.304Z,982.61
2022-08-16T03:51:13.848Z,982.57
2022-08-16T03:52:12.808Z,982.60
2022-08-16T03:53:12.801Z,982.58
2022-08-16T03:54:13.732Z,982.57
2022-08-16T03:55:15.198Z,982.59
2022-08-16T03:56:21.043Z,982.60
2022-08-16T03:57:15.730Z,982.60
2022-08-16T03:58:17.032Z,982.58
2022-08-16T03:59:13.738Z,982.59
2022-08-16T04:00:20.562Z,982.58
2022-08-16T04:01:13.800Z,982.55
2022-08-16T04:02:22.556Z,982.54
2022-08-16T04:03:14.559Z,982.56
2022-08-16T04:04:25.076Z,982.58
2022-08-16T04:05:13.848Z,982.59
2022-08-16T04:06:14.299Z,982.67
2022-08-16T04:07:12.781Z,982.66
2022-08-16T04:08:23.938Z,982.65
2022-08-16T04:09:13.697Z,982.72
2022-08-16T04:10:37.285Z,982.69
2022-08-16T04:11:16.469Z,982.73
2022-08-16T04:12:53.504Z,982.70
2022-08-16T04:13:20.307Z,982.74
2022-08-16T04:14:33.434Z,982.74
2022-08-16T04:15:16.857Z,982.75
2022-08-16T04:16:26.239Z,982.73
2022-08-16T04:17:13.473Z,982.73
2022-08-16T04:18:12.489Z,982.72
2022-08-16T04:19:12.470Z,982.71
2022-08-16T04:20:29.403Z,982.72
2022-08-16T04:21:13.437Z,982.75
2022-08-16T04:22:13.414Z,982.78
2022-08-16T04:23:12.380Z,982.75
2022-08-16T04:24:12.400Z,982.77
2022-08-16T04:25:12.420Z,982.78
2022-08-16T04:26:16.889Z,982.76
2022-08-16T04:27:13.330Z,982.75
2022-08-16T04:28:51.900Z,982.79
2022-08-16T04:29:16.266Z,982.80
2022-08-16T04:30:13.309Z,982.82
2022-08-16T04:31:13.280Z,982.82
2022-08-16T04:32:12.332Z,982.84
2022-08-16T04:33:12.290Z,982.90
2022-08-16T04:34:12.262Z,982.90
2022-08-16T04:35:16.160Z,982.88
2022-08-16T04:36:12.270Z,982.85
2022-08-16T04:37:13.281Z,982.91
2022-08-16T04:38:21.093Z,982.87
2022-08-16T04:39:13.210Z,982.90
2022-08-16T04:40:20.551Z,982.92
2022-08-16T04:41:13.207Z,982.95
2022-08-16T04:42:12.146Z,982.91
2022-08-16T04:43:13.067Z,982.91
2022-08-16T04:44:32.910Z,982.93
2022-08-16T04:45:13.091Z,982.97
2022-08-16T04:47:01.360Z,982.99
2022-08-16T04:47:21.898Z,982.99
2022-08-16T04:48:22.090Z,982.93
2022-08-16T04:49:13.148Z,982.97
2022-08-16T04:50:15.546Z,982.96
2022-08-16T04:51:12.725Z,982.99
2022-08-16T04:52:35.260Z,982.97
2022-08-16T04:53:13.139Z,982.95
2022-08-16T04:54:12.059Z,982.98
2022-08-16T04:55:12.250Z,982.97
2022-08-16T04:56:12.005Z,982.99
2022-08-16T04:57:12.005Z,982.96
2022-08-16T04:58:43.768Z,982.98
2022-08-16T04:59:13.081Z,982.96
2022-08-16T05:00:30.645Z,982.98
2022-08-16T05:01:13.071Z,983.00
2022-08-16T05:02:42.284Z,982.98
2022-08-16T05:03:13.158Z,983.01
2022-08-16T05:04:19.696Z,983.04
2022-08-16T05:05:17.060Z,983.05
2022-08-16T05:06:12.939Z,983.02
2022-08-16T05:07:14.939Z,983.05
2022-08-16T05:08:28.155Z,983.04
2022-08-16T05:09:12.804Z,983.11
2022-08-16T05:10:19.540Z,983.08
2022-08-16T05:11:12.743Z,983.11
2022-08-16T05:12:11.732Z,983.16
2022-08-16T05:13:15.388Z,983.09
2022-08-16T05:14:11.822Z,983.10
2022-08-16T05:15:12.693Z,983.09
2022-08-16T05:16:16.645Z,983.09
2022-08-16T05:17:12.661Z,983.07
2022-08-16T05:18:16.162Z,983.12
2022-08-16T05:19:13.309Z,983.07
2022-08-16T05:20:38.671Z,983.14
2022-08-16T05:21:12.732Z,983.14
2022-08-16T05:22:17.951Z,983.17
2022-08-16T05:23:13.772Z,983.19
2022-08-16T05:24:11.640Z,983.22
2022-08-16T05:25:11.573Z,983.17
2022-08-16T05:26:19.996Z,983.21
2022-08-16T05:27:12.531Z,983.17
2022-08-16T05:28:11.904Z,983.14
2022-08-16T05:29:15.421Z,983.18
2022-08-16T05:30:34.688Z,983.18
2022-08-16T05:31:12.480Z,983.19
2022-08-16T05:32:32.272Z,983.21
2022-08-16T05:33:16.385Z,983.19
2022-08-16T05:34:19.780Z,983.19
2022-08-16T05:35:12.423Z,983.22
2022-08-16T05:36:14.383Z,983.23
2022-08-16T05:37:15.806Z,983.28
2022-08-16T05:38:32.791Z,983.24
2022-08-16T05:39:12.405Z,983.28
2022-08-16T05:40:13.274Z,983.24
2022-08-16T05:41:13.780Z,983.22
2022-08-16T05:42:11.344Z,983.24
2022-08-16T05:43:12.017Z,983.24
2022-08-16T05:44:22.981Z,983.22
2022-08-16T05:45:12.294Z,983.32
2022-08-16T05:46:28.673Z,983.32
2022-08-16T05:47:15.318Z,983.39
2022-08-16T05:48:11.254Z,983.35
2022-08-16T05:49:11.331Z,983.38
2022-08-16T05:50:19.111Z,983.41
2022-08-16T05:51:12.215Z,983.40
2022-08-16T05:52:13.504Z,983.42
2022-08-16T05:53:12.215Z,983.44
2022-08-16T05:54:11.386Z,983.45
2022-08-16T05:55:11.165Z,983.41
2022-08-16T05:56:11.156Z,983.43
2022-08-16T05:57:13.428Z,983.42
2022-08-16T05:58:31.484Z,983.45
2022-08-16T05:59:12.135Z,983.44
2022-08-16T06:00:11.112Z,983.47
2022-08-16T06:01:11.202Z,983.40
2022-08-16T06:02:11.076Z,983.44
2022-08-16T06:03:13.145Z,983.40
2022-08-16T06:04:12.789Z,983.40
2022-08-16T06:05:11.149Z,983.41
2022-08-16T06:06:11.023Z,983.38
2022-08-16T06:07:25.205Z,983.42
2022-08-16T06:08:31.633Z,983.44
2022-08-16T06:09:12.006Z,983.44
2022-08-16T06:10:10.969Z,983.46
2022-08-16T06:11:11.293Z,983.44
2022-08-16T06:12:10.986Z,983.46
2022-08-16T06:13:10.933Z,983.46
2022-08-16T06:14:10.966Z,983.49
2022-08-16T06:15:10.910Z,983.54
2022-08-16T06:16:17.741Z,983.53
2022-08-16T06:17:11.867Z,983.54
2022-08-16T06:18:10.864Z,983.56
2022-08-16T06:19:10.878Z,983.57
2022-08-16T06:20:10.847Z,983.61
2022-08-16T06:21:10.817Z,983.61
2022-08-16T06:22:10.815Z,983.59
2022-08-16T06:23:17.511Z,983.60
2022-08-16T06:24:53.390Z,983.62
2022-08-16T06:25:11.772Z,983.63
2022-08-16T06:26:10.777Z,983.62
2022-08-16T06:27:10.761Z,983.64
2022-08-16T06:28:17.260Z,983.59
2022-08-16T06:29:11.748Z,983.65
2022-08-16T06:30:10.710Z,983.65
2022-08-16T06:31:12.173Z,983.67
2022-08-16T06:32:10.678Z,983.63
2022-08-16T06:33:12.294Z,983.66
2022-08-16T06:34:55.085Z,983.64
2022-08-16T06:35:11.660Z,983.66
2022-08-16T06:36:10.634Z,983.66
2022-08-16T06:37:10.617Z,983.65
2022-08-16T06:38:33.908Z,983.65
2022-08-16T06:39:11.588Z,983.67
2022-08-16T06:40:12.732Z,983.67
2022-08-16T06:41:13.988Z,983.70
2022-08-16T06:42:10.551Z,983.70
2022-08-16T06:43:10.528Z,983.67
2022-08-16T06:44:20.926Z,983.66
2022-08-16T06:45:11.596Z,983.70
2022-08-16T06:46:10.503Z,983.66
2022-08-16T06:47:10.478Z,983.65
2022-08-16T06:48:10.468Z,983.67
2022-08-16T06:49:11.048Z,983.70
2022-08-16T06:50:10.448Z,983.66
2022-08-16T06:51:11.418Z,983.60
2022-08-16T06:52:57.981Z,983.64
2022-08-16T06:53:11.399Z,983.63
2022-08-16T06:54:14.249Z,983.61
2022-08-16T06:55:13.532Z,983.63
2022-08-16T06:56:14.394Z,983.66
2022-08-16T06:57:11.770Z,983.67
2022-08-16T06:58:22.091Z,983.67
2022-08-16T06:59:11.350Z,983.64
2022-08-16T07:00:21.992Z,983.63
2022-08-16T07:01:14.937Z,983.66
2022-08-16T07:02:33.401Z,983.64
2022-08-16T07:03:27.438Z,983.67
2022-08-16T07:04:12.039Z,983.67
2022-08-16T07:05:15.121Z,983.71
2022-08-16T07:06:11.391Z,983.77
2022-08-16T07:07:10.209Z,983.82
2022-08-16T07:08:10.351Z,983.79
2022-08-16T07:09:10.221Z,983.84
2022-08-16T07:10:10.170Z,983.86
2022-08-16T07:11:10.160Z,983.87
2022-08-16T07:12:10.606Z,983.86
2022-08-16T07:13:11.813Z,983.87
2022-08-16T07:14:23.637Z,983.87
2022-08-16T07:15:18.841Z,983.83
2022-08-16T07:16:11.098Z,983.86
2022-08-16T07:17:11.490Z,983.82
2022-08-16T07:18:11.041Z,983.81
2022-08-16T07:19:10.861Z,983.82
2022-08-16T07:20:34.944Z,983.83
2022-08-16T07:21:11.037Z,983.85
2022-08-16T07:22:37.569Z,983.88
2022-08-16T07:23:13.327Z,983.83
2022-08-16T07:24:09.992Z,983.84
2022-08-16T07:25:11.809Z,983.81
2022-08-16T07:26:09.962Z,983.81
2022-08-16T07:27:12.565Z,983.82
2022-08-16T07:28:12.153Z,983.87
2022-08-16T07:29:10.923Z,983.86
2022-08-16T07:30:38.522Z,983.84
2022-08-16T07:31:13.081Z,983.92
2022-08-16T07:32:09.894Z,983.89
2022-08-16T07:33:09.916Z,983.92
2022-08-16T07:34:10.865Z,983.90
2022-08-16T07:35:09.844Z,983.93
2022-08-16T07:36:09.905Z,983.93
2022-08-16T07:37:09.888Z,983.95
2022-08-16T07:38:09.814Z,983.88
2022-08-16T07:39:09.843Z,983.87
2022-08-16T07:40:11.552Z,983.89
2022-08-16T07:41:10.834Z,983.90
2022-08-16T07:42:09.772Z,983.92
2022-08-16T07:43:10.964Z,983.97
2022-08-16T07:44:15.443Z,983.96
2022-08-16T07:45:10.715Z,983.97
2022-08-16T07:46:38.703Z,983.92
2022-08-16T07:47:10.836Z,983.95
2022-08-16T07:48:11.525Z,983.89
2022-08-16T07:49:11.486Z,983.91
2022-08-16T07:50:09.668Z,983.95
2022-08-16T07:51:10.637Z,983.94
2022-08-16T07:52:19.098Z,983.93
2022-08-16T07:53:10.616Z,983.91
2022-08-16T07:54:10.733Z,983.93
2022-08-16T07:55:12.357Z,983.90
2022-08-16T07:56:09.579Z,983.89
2022-08-16T07:57:11.431Z,983.89
2022-08-16T07:58:09.547Z,983.91
2022-08-16T07:59:10.577Z,983.91
2022-08-16T08:00:18.552Z,983.92
2022-08-16T08:01:12.515Z,983.94
2022-08-16T08:02:11.881Z,983.95
2022-08-16T08:03:10.789Z,983.90
2022-08-16T08:04:12.938Z,983.91
2022-08-16T08:05:09.460Z,983.96
2022-08-16T08:06:10.486Z,983.93
2022-08-16T08:07:09.429Z,983.96
2022-08-16T08:08:11.646Z,983.94
2022-08-16T08:09:10.429Z,983.99
2022-08-16T08:10:10.931Z,984.00
2022-08-16T08:11:09.564Z,984.05
2022-08-16T08:12:09.382Z,984.05
2022-08-16T08:13:10.339Z,984.03
2022-08-16T08:14:09.364Z,984.04
2022-08-16T08:15:10.527Z,984.03
2022-08-16T08:16:09.308Z,984.04
2022-08-16T08:17:10.321Z,984.03
2022-08-16T08:18:29.480Z,983.99
2022-08-16T08:19:10.302Z,984.03
2022-08-16T08:20:09.271Z,983.99
2022-08-16T08:21:09.249Z,984.02
2022-08-16T08:22:09.259Z,984.00
2022-08-16T08:23:10.214Z,984.01
2022-08-16T08:24:09.584Z,984.02
2022-08-16T08:25:09.193Z,984.01
2022-08-16T08:26:10.712Z,984.00
2022-08-16T08:27:10.253Z,984.02
2022-08-16T08:28:11.069Z,984.03
2022-08-16T08:29:09.165Z,983.98
2022-08-16T08:30:52.250Z,984.00
2022-08-16T08:31:10.335Z,984.00
2022-08-16T08:32:58.515Z,984.03
2022-08-16T08:33:10.104Z,984.04
2022-08-16T08:34:12.791Z,984.08
2022-08-16T08:35:09.057Z,984.07
2022-08-16T08:36:09.065Z,984.04
2022-08-16T08:37:09.078Z,984.08
2022-08-16T08:38:09.015Z,984.07
2022-08-16T08:39:12.526Z,984.11
2022-08-16T08:40:09.013Z,984.07
2022-08-16T08:41:08.977Z,984.08
2022-08-16T08:42:08.967Z,984.02
2022-08-16T08:43:12.551Z,984.08
2022-08-16T08:44:27.956Z,984.05
2022-08-16T08:45:16.640Z,984.04
2022-08-16T08:46:17.842Z,983.98
2022-08-16T08:47:12.151Z,983.95
2022-08-16T08:48:09.019Z,984.01
2022-08-16T08:49:09.900Z,984.05
2022-08-16T08:50:08.911Z,984.08
2022-08-16T08:51:09.534Z,984.06
2022-08-16T08:52:09.344Z,984.05
2022-08-16T08:53:08.839Z,984.07
2022-08-16T08:54:09.169Z,984.11
2022-08-16T08:55:10.509Z,984.13
2022-08-16T08:56:22.863Z,984.06
2022-08-16T08:57:11.119Z,984.06
2022-08-16T08:58:10.357Z,984.03
2022-08-16T08:59:13.583Z,984.03
2022-08-16T09:00:13.067Z,984.07
2022-08-16T09:01:09.467Z,984.10
2022-08-16T09:02:08.719Z,984.13
2022-08-16T09:03:08.700Z,984.08
2022-08-16T09:04:08.866Z,984.09
2022-08-16T09:05:15.816Z,984.12
2022-08-16T09:06:09.721Z,984.16
2022-08-16T09:07:08.665Z,984.12
2022-08-16T09:08:09.046Z,984.12
2022-08-16T09:09:08.641Z,984.09
2022-08-16T09:10:20.854Z,984.16
2022-08-16T09:11:09.598Z,984.11
2022-08-16T09:12:09.574Z,984.07
2022-08-16T09:13:10.678Z,984.09
2022-08-16T09:14:08.568Z,984.14
2022-08-16T09:15:09.533Z,984.13
2022-08-16T09:16:08.513Z,984.17
2022-08-16T09:17:12.019Z,984.22
2022-08-16T09:18:26.160Z,984.17
2022-08-16T09:20:08.463Z,984.13
2022-08-16T09:21:09.302Z,984.10
2022-08-16T09:22:21.028Z,984.17
2022-08-16T09:23:09.494Z,984.12
2022-08-16T09:24:09.946Z,984.12
2022-08-16T09:25:11.256Z,984.11
2022-08-16T09:26:46.229Z,984.15
2022-08-16T09:27:09.377Z,984.16
2022-08-16T09:28:08.871Z,984.16
2022-08-16T09:29:17.111Z,984.16
2022-08-16T09:30:34.386Z,984.17
2022-08-16T09:31:10.820Z,984.20
2022-08-16T09:32:08.318Z,984.18
2022-08-16T09:33:08.307Z,984.17
2022-08-16T09:34:08.320Z,984.20
2022-08-16T09:35:08.276Z,984.20
2022-08-16T09:36:12.073Z,984.19
2022-08-16T09:37:17.956Z,984.16
2022-08-16T09:38:09.805Z,984.19
2022-08-16T09:39:08.235Z,984.24
2022-08-16T09:40:33.094Z,984.20
2022-08-16T09:41:14.429Z,984.20
2022-08-16T09:42:10.575Z,984.25
2022-08-16T09:43:08.352Z,984.23
2022-08-16T09:45:11.420Z,984.19
2022-08-16T09:45:16.465Z,984.21
2022-08-16T09:46:46.028Z,984.19
2022-08-16T09:47:10.443Z,984.20
2022-08-16T09:48:08.104Z,984.17
2022-08-16T09:49:08.568Z,984.16
2022-08-16T09:50:11.971Z,984.13
2022-08-16T09:51:08.064Z,984.16
2022-08-16T09:52:09.550Z,984.18
2022-08-16T09:53:08.059Z,984.15
2022-08-16T09:54:09.503Z,984.14
2022-08-16T09:55:08.033Z,984.15
2022-08-16T09:56:11.355Z,984.14
2022-08-16T09:57:07.993Z,984.13
2022-08-16T09:58:07.985Z,984.14
2022-08-16T09:59:08.576Z,984.15
2022-08-16T10:00:42.429Z,984.13
2022-08-16T10:01:11.140Z,984.05
2022-08-16T10:02:26.322Z,984.10
2022-08-16T10:03:09.061Z,984.09
2022-08-16T10:04:29.937Z,984.10
2022-08-16T10:05:09.003Z,984.11
2022-08-16T10:06:07.881Z,984.10
2022-08-16T10:07:15.316Z,984.06
2022-08-16T10:08:25.978Z,984.09
2022-08-16T10:09:11.219Z,984.08
2022-08-16T10:10:11.605Z,984.06
2022-08-16T10:11:09.290Z,984.13
2022-08-16T10:12:11.591Z,984.10
2022-08-16T10:13:08.848Z,984.07
2022-08-16T10:14:07.761Z,984.05
2022-08-16T10:15:08.780Z,984.07
2022-08-16T10:16:08.765Z,984.09
2022-08-16T10:17:07.739Z,984.04
2022-08-16T10:18:41.065Z,984.03
2022-08-16T10:19:08.721Z,984.04
2022-08-16T10:20:07.723Z,984.05
2022-08-16T10:21:07.681Z,984.06
2022-08-16T10:22:07.712Z,984.01
2022-08-16T10:23:09.961Z,984.08
2022-08-16T10:24:08.633Z,984.08
2022-08-16T10:25:07.653Z,984.08
2022-08-16T10:27:16.756Z,984.07
2022-08-16T10:27:21.454Z,984.09
2022-08-16T10:28:28.275Z,984.08
2022-08-16T10:29:08.583Z,984.05
2022-08-16T10:30:25.138Z,984.12
2022-08-16T10:31:08.544Z,984.15
2022-08-16T10:32:07.533Z,984.14
2022-08-16T10:33:07.524Z,984.07
2022-08-16T10:34:30.875Z,984.12
2022-08-16T10:35:08.524Z,984.12
2022-08-16T10:36:07.754Z,984.09
2022-08-16T10:37:07.476Z,984.13
2022-08-16T10:38:09.581Z,984.09
2022-08-16T10:39:08.733Z,984.10
2022-08-16T10:40:29.033Z,984.09
2022-08-16T10:41:08.430Z,984.14
2022-08-16T10:42:07.417Z,984.03
2022-08-16T10:43:08.374Z,984.03
2022-08-16T10:44:09.356Z,984.03
2022-08-16T10:45:07.398Z,984.07
2022-08-16T10:46:39.341Z,984.07
2022-08-16T10:47:08.369Z,984.07
2022-08-16T10:48:27.276Z,983.99
2022-08-16T10:49:08.309Z,983.98
2022-08-16T10:50:07.326Z,984.07
2022-08-16T10:51:08.291Z,984.09
2022-08-16T10:52:17.949Z,984.06
2022-08-16T10:53:08.300Z,984.09
2022-08-16T10:54:07.253Z,984.13
2022-08-16T10:56:56.177Z,984.10
2022-08-16T10:57:12.059Z,984.09
2022-08-16T10:58:11.659Z,984.09
2022-08-16T11:00:21.151Z,984.15
2022-08-16T11:02:59.864Z,984.15
2022-08-16T11:03:42.127Z,984.14
2022-08-16T11:05:04.692Z,984.16
2022-08-16T11:05:09.411Z,984.12
2022-08-16T11:06:07.569Z,984.10
2022-08-16T11:07:08.632Z,984.07
2022-08-16T11:08:08.079Z,984.01
2022-08-16T11:09:25.387Z,984.05
2022-08-16T11:11:12.766Z,984.08
2022-08-16T11:12:13.643Z,984.14
2022-08-16T11:14:11.586Z,984.13
2022-08-16T11:15:13.999Z,984.16
2022-08-16T11:17:10.396Z,984.17
2022-08-16T11:18:47.847Z,984.18
2022-08-16T11:19:13.153Z,984.17
2022-08-16T11:21:07.946Z,984.22
2022-08-16T11:22:23.263Z,984.25
2022-08-16T11:23:07.909Z,984.26
2022-08-16T11:24:40.038Z,984.22
2022-08-16T11:26:03.848Z,984.23
2022-08-16T11:26:23.508Z,984.24
2022-08-16T11:27:26.939Z,984.25
2022-08-16T11:28:07.834Z,984.17
2022-08-16T11:29:14.670Z,984.16
2022-08-16T11:30:09.009Z,984.19
2022-08-16T11:31:06.901Z,984.29
2022-08-16T11:32:07.609Z,984.26
2022-08-16T11:33:06.764Z,984.31
2022-08-16T11:34:07.442Z,984.30
2022-08-16T11:35:14.062Z,984.32
2022-08-16T11:36:24.834Z,984.42
2022-08-16T11:37:07.741Z,984.40
2022-08-16T11:38:46.621Z,984.37
2022-08-16T11:39:07.683Z,984.42
2022-08-16T11:40:06.820Z,984.41
2022-08-16T11:41:06.855Z,984.41
2022-08-16T11:42:07.676Z,984.43
2022-08-16T11:43:07.768Z,984.47
2022-08-16T11:44:06.632Z,984.48
2022-08-16T11:45:06.656Z,984.44
2022-08-16T11:46:45.031Z,984.38
2022-08-16T11:47:07.591Z,984.42
2022-08-16T11:48:06.567Z,984.38
2022-08-16T11:49:11.281Z,984.40
2022-08-16T11:50:08.330Z,984.39
2022-08-16T11:51:06.535Z,984.42
2022-08-16T11:52:06.518Z,984.41
2022-08-16T11:53:08.346Z,984.34
2022-08-16T11:54:09.070Z,984.33
2022-08-16T11:55:07.528Z,984.36
2022-08-16T11:56:06.473Z,984.35
2022-08-16T11:57:09.369Z,984.36
2022-08-16T11:58:06.448Z,984.29
2022-08-16T11:59:06.440Z,984.28
2022-08-16T12:00:06.428Z,984.25
2022-08-16T12:01:06.440Z,984.25
2022-08-16T12:02:31.162Z,984.20
2022-08-16T12:03:07.382Z,984.21
2022-08-16T12:04:06.395Z,984.18
2022-08-16T12:05:06.382Z,984.19
2022-08-16T12:06:06.441Z,984.19
2022-08-16T12:07:06.352Z,984.17
2022-08-16T12:08:06.312Z,984.20
2022-08-16T12:09:06.312Z,984.20
2022-08-16T12:10:06.314Z,984.25
2022-08-16T12:11:06.285Z,984.22
2022-08-16T12:12:06.295Z,984.18
2022-08-16T12:13:06.255Z,984.19
2022-08-16T12:14:06.235Z,984.17
2022-08-16T12:15:06.277Z,984.16
2022-08-16T12:16:06.215Z,984.19
2022-08-16T12:17:06.216Z,984.21
2022-08-16T12:18:06.945Z,984.19
2022-08-16T12:19:06.183Z,984.19
2022-08-16T12:20:07.543Z,984.18
2022-08-16T12:21:06.158Z,984.17
2022-08-16T12:22:19.040Z,984.17
2022-08-16T12:23:07.128Z,984.12
2022-08-16T12:24:06.117Z,984.08
2022-08-16T12:25:06.138Z,984.19
2022-08-16T12:26:10.304Z,984.20
2022-08-16T12:27:06.129Z,984.18
2022-08-16T12:28:06.088Z,984.19
2022-08-16T12:29:06.080Z,984.20
2022-08-16T12:30:06.080Z,984.14
2022-08-16T12:31:07.032Z,984.21
2022-08-16T12:32:35.641Z,984.22
2022-08-16T12:33:07.038Z,984.20
2022-08-16T12:34:06.022Z,984.21
2022-08-16T12:35:05.975Z,984.21
2022-08-16T12:36:05.967Z,984.21